This is the latest recevied weather packets stored in our database for station/object SIILIN. If no packets are shown the sender has not sent any weather packets the latest 10 day(s).
| Time | Temp. | Humidity | Pressure | Rain* | Wind** | Luminosity | Snow |
|---|---|---|---|---|---|---|---|
| 1777942037 | 5.56° C | 91% | 1000.2 hPa | - | - | - | - |
| 1777940836 | 6.11° C | 89% | 999.9 hPa | - | - | - | - |
| 1777939637 | 6.11° C | 91% | 1000 hPa | - | - | - | - |
| 1777938437 | 6.11° C | 92% | 1000.2 hPa | - | - | - | - |
| 1777937237 | 6.67° C | 93% | 1000.2 hPa | - | - | - | - |
| 1777936037 | 7.22° C | 91% | 999.8 hPa | - | - | - | - |
| 1777934837 | 7.22° C | 92% | 1000 hPa | - | - | - | - |
| 1777933636 | 7.22° C | 91% | 1000.2 hPa | - | - | - | - |
| 1777932437 | 7.22° C | 91% | 1000.2 hPa | - | - | - | - |
| 1777931237 | 7.22° C | 91% | 1000.1 hPa | - | - | - | - |
| 1777930037 | 7.78° C | 89% | 1000.1 hPa | - | - | - | - |
| 1777928837 | 7.78° C | 87% | 1000.1 hPa | - | - | - | - |
| 1777927636 | 7.22° C | 91% | 1000.1 hPa | - | - | - | - |
| 1777926436 | 7.22° C | 92% | 1000.3 hPa | - | - | - | - |
| 1777925236 | 7.78° C | 83% | 1000 hPa | - | - | - | - |
| 1777924036 | 7.78° C | 84% | 999.9 hPa | - | - | - | - |
| 1777922836 | 7.78° C | 81% | 1000 hPa | - | - | - | - |
| 1777921636 | 8.33° C | 77% | 999.9 hPa | - | - | - | - |
| 1777920435 | 8.33° C | 76% | 1000 hPa | - | - | - | - |
| 1777919236 | 8.89° C | 71% | 1000 hPa | - | - | - | - |
| 1777918036 | 8.89° C | 69% | 999.8 hPa | - | - | - | - |
| 1777916836 | 8.89° C | 68% | 999.9 hPa | - | - | - | - |
| 1777915635 | 8.89° C | 67% | 999.9 hPa | - | - | - | - |
| 1777914435 | 8.89° C | 66% | 999.9 hPa | - | - | - | - |
| 1777913235 | 9.44° C | 64% | 999.8 hPa | - | - | - | - |
* Rain since midnight (hover to see other rain measurements)
** Current wind speed in m/s (hover to see current wind gust speed)